Time;durP1;ratioP1;P1;durP2;ratioP2;P2;SDS_P1;SDS_P2;PMS_P1;PMS_P2;Temp;Humidity;BMP_temperature;BMP_pressure;BME280_temperature;BME280_humidity;BME280_pressure;Samples;Min_cycle;Max_cycle;Signal;HPM_P1;HPM_P2
2022/09/02 00:00:58;;;;;;;;;;;16.80;85.80;;;;;;5069249;28;19967;-47
2022/09/02 00:03:24;;;;;;;;;;;16.80;85.80;;;;;;5069723;28;19917;-46
2022/09/02 00:05:49;;;;;;;;;;;16.70;85.70;;;;;;5069130;28;19924;-48
2022/09/02 00:08:15;;;;;;;;;;;16.70;86.10;;;;;;5071588;28;19964;-49
2022/09/02 00:10:42;;;;;;;;;;;16.70;86.00;;;;;;5071609;28;19916;-46
2022/09/02 00:13:08;;;;;;;;;;;16.70;86.20;;;;;;5072566;28;19924;-47
2022/09/02 00:15:34;;;;;;;;;;;16.60;86.10;;;;;;5072447;28;20011;-47
2022/09/02 00:18:00;;;;;;;;;;;16.70;86.20;;;;;;5072603;28;20015;-49
2022/09/02 00:20:27;;;;;;;;;;;16.60;86.30;;;;;;5072645;28;19920;-45
2022/09/02 00:22:52;;;;;;;;;;;16.60;86.30;;;;;;5072828;28;19920;-47
2022/09/02 00:25:18;;;;;;;;;;;16.60;86.50;;;;;;5072970;28;19935;-47
2022/09/02 00:27:44;;;;;;;;;;;16.60;86.60;;;;;;5072503;28;19920;-48
2022/09/02 00:30:10;;;;;;;;;;;16.50;86.50;;;;;;5072436;28;19917;-46
2022/09/02 00:32:36;;;;;;;;;;;16.50;86.80;;;;;;5070860;28;19924;-49
2022/09/02 00:35:01;;;;;;;;;;;16.50;87.00;;;;;;5072766;28;20445;-49
2022/09/02 00:37:27;;;;;;;;;;;16.40;87.10;;;;;;5070847;28;19924;-48
2022/09/02 00:39:53;;;;;;;;;;;16.30;87.30;;;;;;5072262;28;19974;-45
2022/09/02 00:42:19;;;;;;;;;;;16.40;87.40;;;;;;5072406;28;19916;-47
2022/09/02 00:44:45;;;;;;;;;;;16.30;87.50;;;;;;5072060;28;20011;-47
2022/09/02 00:47:11;;;;;;;;;;;16.30;87.60;;;;;;5071600;28;20007;-46
2022/09/02 00:49:39;;;;;;;;;;;16.20;87.80;;;;;;5071878;28;19924;-47
2022/09/02 00:52:04;;;;;;;;;;;16.20;88.00;;;;;;5072167;28;20007;-49
2022/09/02 00:54:31;;;;;;;;;;;16.10;88.00;;;;;;5072080;28;20343;-52
2022/09/02 00:56:58;;;;;;;;;;;16.10;88.20;;;;;;5070518;28;19916;-47
2022/09/02 00:59:38;;;;;;;;;;;16.10;88.30;;;;;;5072176;28;20317;-52
2022/09/02 01:02:06;;;;;;;;;;;16.10;88.40;;;;;;5072063;28;19963;-51
2022/09/02 01:04:31;;;;;;;;;;;16.10;88.70;;;;;;5070895;28;20419;-45
2022/09/02 01:06:57;;;;;;;;;;;16.00;89.00;;;;;;5071886;28;20008;-47
2022/09/02 01:09:22;;;;;;;;;;;15.90;89.10;;;;;;5070733;28;19965;-48
2022/09/02 01:11:50;;;;;;;;;;;16.00;89.30;;;;;;5071730;28;19999;-47
2022/09/02 01:14:16;;;;;;;;;;;15.90;89.50;;;;;;5071840;28;19955;-48
2022/09/02 01:16:43;;;;;;;;;;;15.90;89.70;;;;;;5071312;28;19970;-47
2022/09/02 01:19:15;;;;;;;;;;;15.80;89.80;;;;;;5071375;28;19926;-48
2022/09/02 01:21:44;;;;;;;;;;;15.80;89.80;;;;;;5070976;28;20010;-50
2022/09/02 01:24:10;;;;;;;;;;;15.80;90.10;;;;;;5071600;28;19924;-49
2022/09/02 01:26:35;;;;;;;;;;;15.70;90.10;;;;;;5071485;28;19920;-47
2022/09/02 01:29:01;;;;;;;;;;;15.70;90.20;;;;;;5071686;28;20363;-47
2022/09/02 01:31:26;;;;;;;;;;;15.70;90.30;;;;;;5071360;28;19921;-47
2022/09/02 01:33:53;;;;;;;;;;;15.70;90.30;;;;;;5071571;28;20396;-46
2022/09/02 01:36:19;;;;;;;;;;;15.70;90.40;;;;;;5071166;28;20383;-48
2022/09/02 01:38:45;;;;;;;;;;;15.70;90.50;;;;;;5069857;28;19916;-47
2022/09/02 01:41:10;;;;;;;;;;;15.60;90.50;;;;;;5070926;28;20393;-50
2022/09/02 01:43:36;;;;;;;;;;;15.60;90.60;;;;;;5071435;28;20021;-48
2022/09/02 01:46:02;;;;;;;;;;;15.60;90.80;;;;;;5071190;28;19916;-48
2022/09/02 01:48:27;;;;;;;;;;;15.50;90.80;;;;;;5070569;28;19928;-51
2022/09/02 01:50:57;;;;;;;;;;;15.40;90.90;;;;;;5070751;28;19917;-49
2022/09/02 01:53:23;;;;;;;;;;;15.50;91.20;;;;;;5070048;28;20447;-50
2022/09/02 01:55:49;;;;;;;;;;;15.40;91.00;;;;;;5070957;28;19974;-47
2022/09/02 01:58:14;;;;;;;;;;;15.40;91.00;;;;;;5071093;28;20386;-50
2022/09/02 02:00:40;;;;;;;;;;;15.40;91.20;;;;;;5071016;28;20360;-50
2022/09/02 02:03:06;;;;;;;;;;;15.30;91.20;;;;;;5070806;28;19941;-49
2022/09/02 02:05:32;;;;;;;;;;;15.30;91.40;;;;;;5070040;28;20366;-51
2022/09/02 02:07:59;;;;;;;;;;;15.30;91.40;;;;;;5070702;28;20046;-47
2022/09/02 02:10:24;;;;;;;;;;;15.30;91.50;;;;;;5070614;28;20280;-49
2022/09/02 02:12:50;;;;;;;;;;;15.20;91.50;;;;;;5070666;28;19920;-48
2022/09/02 02:15:17;;;;;;;;;;;15.20;91.70;;;;;;5070910;28;19916;-50
2022/09/02 02:17:42;;;;;;;;;;;15.20;91.70;;;;;;5068717;28;19930;-48
2022/09/02 02:20:09;;;;;;;;;;;15.10;91.80;;;;;;5069870;28;20287;-47
2022/09/02 02:22:35;;;;;;;;;;;15.10;91.90;;;;;;5070759;28;19916;-50
2022/09/02 02:25:01;;;;;;;;;;;15.10;91.90;;;;;;5070015;28;19924;-47
2022/09/02 02:27:26;;;;;;;;;;;14.50;91.80;;;;;;5068869;28;19927;-48
2022/09/02 02:29:52;;;;;;;;;;;15.10;92.10;;;;;;5070612;28;20030;-46
2022/09/02 02:32:18;;;;;;;;;;;15.00;92.20;;;;;;5070234;28;20334;-48
2022/09/02 02:34:44;;;;;;;;;;;15.00;92.50;;;;;;5069321;28;19920;-50
2022/09/02 02:37:11;;;;;;;;;;;15.00;92.40;;;;;;5069869;28;19917;-47
2022/09/02 02:39:38;;;;;;;;;;;15.00;92.50;;;;;;5070338;28;19989;-48
2022/09/02 02:42:04;;;;;;;;;;;14.90;92.60;;;;;;5070428;28;19916;-50
2022/09/02 02:44:30;;;;;;;;;;;14.90;92.70;;;;;;5069989;28;20738;-48
2022/09/02 02:46:56;;;;;;;;;;;14.90;92.80;;;;;;5069846;28;20019;-48
2022/09/02 02:49:22;;;;;;;;;;;14.80;92.80;;;;;;5068621;28;19916;-49
2022/09/02 02:51:48;;;;;;;;;;;14.80;93.00;;;;;;5069473;28;20283;-46
2022/09/02 02:54:13;;;;;;;;;;;14.80;93.00;;;;;;5069294;28;19966;-50
2022/09/02 02:56:39;;;;;;;;;;;14.80;93.20;;;;;;5069595;28;19920;-48
2022/09/02 02:59:05;;;;;;;;;;;14.70;93.20;;;;;;5069725;28;19959;-48
2022/09/02 03:01:31;;;;;;;;;;;14.70;93.30;;;;;;5070049;28;19978;-51
2022/09/02 03:03:56;;;;;;;;;;;14.70;93.40;;;;;;5069982;28;19932;-48
2022/09/02 03:06:22;;;;;;;;;;;14.70;93.50;;;;;;5069914;28;19916;-48
2022/09/02 03:08:48;;;;;;;;;;;14.60;93.90;;;;;;5070071;28;19973;-48
2022/09/02 03:11:14;;;;;;;;;;;14.60;93.70;;;;;;5069933;28;19916;-49
2022/09/02 03:13:40;;;;;;;;;;;14.60;93.80;;;;;;5069405;28;19924;-49
2022/09/02 03:16:06;;;;;;;;;;;14.50;93.90;;;;;;5069378;28;20383;-49
2022/09/02 03:18:32;;;;;;;;;;;14.50;94.00;;;;;;5069854;28;20169;-50
2022/09/02 03:20:57;;;;;;;;;;;14.50;94.10;;;;;;5069483;28;19920;-49
2022/09/02 03:23:23;;;;;;;;;;;14.50;94.10;;;;;;5069818;28;20413;-49
2022/09/02 03:25:49;;;;;;;;;;;14.50;94.30;;;;;;5068011;28;19920;-51
2022/09/02 03:28:14;;;;;;;;;;;14.50;94.30;;;;;;5069596;28;19916;-47
2022/09/02 03:30:40;;;;;;;;;;;14.50;94.40;;;;;;5070047;28;19920;-51
2022/09/02 03:33:06;;;;;;;;;;;14.50;94.40;;;;;;5069543;28;20377;-50
2022/09/02 03:35:33;;;;;;;;;;;14.40;94.60;;;;;;5069801;28;19923;-48
2022/09/02 03:37:58;;;;;;;;;;;14.40;94.60;;;;;;5069376;28;20055;-49
2022/09/02 03:40:25;;;;;;;;;;;14.40;94.70;;;;;;5069796;28;19963;-48
2022/09/02 03:42:51;;;;;;;;;;;14.40;94.70;;;;;;5070436;28;19916;-50
2022/09/02 03:45:16;;;;;;;;;;;14.40;94.90;;;;;;5072977;28;19917;-49
2022/09/02 03:47:49;;;;;;;;;;;14.30;94.90;;;;;;5072921;28;19931;-51
2022/09/02 03:50:16;;;;;;;;;;;14.30;95.00;;;;;;5073059;28;20415;-48
2022/09/02 03:52:41;;;;;;;;;;;14.30;95.10;;;;;;5073302;28;19921;-46
2022/09/02 03:55:07;;;;;;;;;;;14.30;95.20;;;;;;5072807;28;19927;-47
2022/09/02 03:57:34;;;;;;;;;;;14.20;95.20;;;;;;5072522;28;20003;-47
2022/09/02 04:00:00;;;;;;;;;;;14.30;95.50;;;;;;5072887;28;20237;-49
2022/09/02 04:02:25;;;;;;;;;;;14.20;95.50;;;;;;5073131;28;19917;-49
2022/09/02 04:04:51;;;;;;;;;;;14.30;95.50;;;;;;5073051;28;19927;-49
2022/09/02 04:07:16;;;;;;;;;;;14.20;95.60;;;;;;5072379;28;19921;-46
2022/09/02 04:09:42;;;;;;;;;;;14.20;95.80;;;;;;5073206;28;19916;-47
2022/09/02 04:12:08;;;;;;;;;;;14.20;95.90;;;;;;5072736;28;20276;-47
2022/09/02 04:14:33;;;;;;;;;;;14.10;96.00;;;;;;5073192;28;20004;-50
2022/09/02 04:16:59;;;;;;;;;;;14.10;96.10;;;;;;5072725;28;19920;-47
2022/09/02 04:19:24;;;;;;;;;;;14.10;96.20;;;;;;5071425;28;20614;-50
2022/09/02 04:21:50;;;;;;;;;;;14.10;96.30;;;;;;5072356;28;20333;-51
2022/09/02 04:24:15;;;;;;;;;;;14.10;96.40;;;;;;5072800;28;19939;-48
2022/09/02 04:26:41;;;;;;;;;;;14.00;96.50;;;;;;5072441;28;19916;-49
2022/09/02 04:29:08;;;;;;;;;;;14.00;96.60;;;;;;5072544;28;19931;-49
2022/09/02 04:31:34;;;;;;;;;;;14.00;96.70;;;;;;5072657;28;19920;-49
2022/09/02 04:34:00;;;;;;;;;;;14.00;96.80;;;;;;5071428;28;19916;-47
2022/09/02 04:36:26;;;;;;;;;;;14.00;96.90;;;;;;5072262;28;19927;-48
2022/09/02 04:38:52;;;;;;;;;;;13.90;97.00;;;;;;5072569;28;20340;-49
2022/09/02 04:41:21;;;;;;;;;;;13.90;97.10;;;;;;5072544;28;19927;-48
2022/09/02 04:43:47;;;;;;;;;;;13.90;97.20;;;;;;5072550;28;20447;-47
2022/09/02 04:46:14;;;;;;;;;;;13.90;97.40;;;;;;5071960;28;19920;-50
2022/09/02 04:48:39;;;;;;;;;;;13.90;97.40;;;;;;5072041;28;19979;-47
2022/09/02 04:51:06;;;;;;;;;;;13.80;97.40;;;;;;5071954;28;20383;-49
2022/09/02 04:53:32;;;;;;;;;;;13.80;97.70;;;;;;5071057;28;19979;-48
2022/09/02 04:55:58;;;;;;;;;;;13.80;97.80;;;;;;5071978;28;19935;-47
2022/09/02 04:58:23;;;;;;;;;;;13.80;97.90;;;;;;5071686;28;19939;-48
2022/09/02 05:00:49;;;;;;;;;;;13.80;97.90;;;;;;5071781;28;19930;-48
2022/09/02 05:03:14;;;;;;;;;;;13.80;98.00;;;;;;5072203;28;19976;-47
2022/09/02 05:05:40;;;;;;;;;;;13.80;98.20;;;;;;5071590;28;19916;-44
2022/09/02 05:08:06;;;;;;;;;;;13.70;98.20;;;;;;5071225;28;20007;-46
2022/09/02 05:10:32;;;;;;;;;;;13.80;98.40;;;;;;5072170;28;20390;-46
2022/09/02 05:12:58;;;;;;;;;;;13.80;98.40;;;;;;5071983;28;19924;-47
2022/09/02 05:15:24;;;;;;;;;;;13.70;98.50;;;;;;5072039;28;19924;-47
2022/09/02 05:17:49;;;;;;;;;;;13.70;98.60;;;;;;5071228;28;19927;-51
2022/09/02 05:20:15;;;;;;;;;;;13.70;98.70;;;;;;5071675;28;19958;-48
2022/09/02 05:22:42;;;;;;;;;;;13.70;98.80;;;;;;5071441;28;19927;-48
2022/09/02 05:25:08;;;;;;;;;;;13.70;98.90;;;;;;5071550;28;19924;-48
2022/09/02 05:27:34;;;;;;;;;;;13.70;99.00;;;;;;5071760;28;19970;-47
2022/09/02 05:29:59;;;;;;;;;;;13.70;99.40;;;;;;5071055;28;20359;-48
2022/09/02 05:32:26;;;;;;;;;;;13.70;99.20;;;;;;5071761;28;20064;-48
2022/09/02 05:34:52;;;;;;;;;;;13.70;99.30;;;;;;5071384;28;20352;-46
2022/09/02 05:37:18;;;;;;;;;;;13.80;99.40;;;;;;5069732;28;20344;-48
2022/09/02 05:39:43;;;;;;;;;;;13.80;99.50;;;;;;5071288;28;20580;-45
2022/09/02 05:42:09;;;;;;;;;;;13.80;99.50;;;;;;5071100;28;19974;-46
2022/09/02 05:44:35;;;;;;;;;;;13.90;99.50;;;;;;5071675;28;19968;-47
2022/09/02 05:47:01;;;;;;;;;;;13.90;99.50;;;;;;5070636;28;19957;-46
2022/09/02 05:49:26;;;;;;;;;;;13.90;99.60;;;;;;5070778;28;19927;-47
2022/09/02 05:51:54;;;;;;;;;;;14.00;99.70;;;;;;5052689;28;19968;-47
2022/09/02 05:54:24;;;;;;;;;;;14.00;99.70;;;;;;5070774;28;19916;-50
2022/09/02 05:56:51;;;;;;;;;;;14.00;99.70;;;;;;5071005;28;20440;-48
2022/09/02 05:59:17;;;;;;;;;;;14.10;99.70;;;;;;5070804;28;19981;-46
2022/09/02 06:01:43;;;;;;;;;;;14.20;99.70;;;;;;5070898;28;19922;-47
2022/09/02 06:04:08;;;;;;;;;;;14.20;99.50;;;;;;5071299;28;20011;-46
2022/09/02 06:06:37;;;;;;;;;;;14.30;99.50;;;;;;5069831;28;19986;-47
2022/09/02 06:09:05;;;;;;;;;;;14.30;99.50;;;;;;5070521;28;19920;-47
2022/09/02 06:11:30;;;;;;;;;;;14.40;99.30;;;;;;5070543;28;19974;-47
2022/09/02 06:13:56;;;;;;;;;;;14.50;99.20;;;;;;5069260;28;19920;-47
2022/09/02 06:16:22;;;;;;;;;;;14.60;99.20;;;;;;5070540;28;20375;-47
2022/09/02 06:18:48;;;;;;;;;;;14.70;99.20;;;;;;5069127;28;19999;-46
2022/09/02 06:21:14;;;;;;;;;;;14.70;99.00;;;;;;5069966;28;19920;-46
2022/09/02 06:23:40;;;;;;;;;;;14.70;99.20;;;;;;5070316;28;20389;-47
2022/09/02 06:26:07;;;;;;;;;;;14.70;99.20;;;;;;5068696;28;19974;-51
2022/09/02 06:28:32;;;;;;;;;;;14.70;99.10;;;;;;5070237;28;19916;-46
2022/09/02 06:30:58;;;;;;;;;;;14.70;99.00;;;;;;5070070;28;19924;-48
2022/09/02 06:33:23;;;;;;;;;;;14.80;99.20;;;;;;5070427;28;19921;-47
2022/09/02 06:35:49;;;;;;;;;;;14.80;99.10;;;;;;5070246;28;19931;-47
2022/09/02 06:38:15;;;;;;;;;;;14.80;99.20;;;;;;5068519;28;19920;-47
2022/09/02 06:40:59;;;;;;;;;;;14.90;99.10;;;;;;5070486;28;20338;-46
2022/09/02 06:43:24;;;;;;;;;;;14.90;99.20;;;;;;5070055;28;19921;-46
2022/09/02 06:45:50;;;;;;;;;;;15.00;99.30;;;;;;5051685;28;19917;-49
2022/09/02 06:48:16;;;;;;;;;;;15.10;99.10;;;;;;5069794;28;19920;-49
2022/09/02 06:50:43;;;;;;;;;;;15.20;99.00;;;;;;5069855;28;19958;-47
2022/09/02 06:53:10;;;;;;;;;;;15.30;98.70;;;;;;5069990;28;19928;-51
2022/09/02 06:55:40;;;;;;;;;;;15.40;98.40;;;;;;5069765;28;19985;-49
2022/09/02 06:58:06;;;;;;;;;;;15.40;98.30;;;;;;5068432;28;19931;-47
2022/09/02 07:00:34;;;;;;;;;;;15.50;98.40;;;;;;5070320;28;19916;-48
2022/09/02 07:05:43;;;;;;;;;;;15.70;98.30;;;;;;5069774;28;19924;-49
2022/09/02 07:08:09;;;;;;;;;;;15.80;97.70;;;;;;5069659;28;19916;-49
2022/09/02 07:10:39;;;;;;;;;;;15.80;97.80;;;;;;5069926;28;19920;-49
2022/09/02 07:13:04;;;;;;;;;;;15.80;97.50;;;;;;5069741;28;20011;-47
2022/09/02 07:15:31;;;;;;;;;;;15.90;97.80;;;;;;5070085;28;20359;-51
2022/09/02 07:17:56;;;;;;;;;;;16.00;98.00;;;;;;5068726;28;19924;-47
2022/09/02 07:20:22;;;;;;;;;;;16.00;97.50;;;;;;5069475;28;19916;-47
2022/09/02 07:22:48;;;;;;;;;;;16.10;97.60;;;;;;5068215;28;19972;-47
2022/09/02 07:25:14;;;;;;;;;;;16.00;97.50;;;;;;5069871;28;19928;-50
2022/09/02 07:27:40;;;;;;;;;;;16.10;97.70;;;;;;5069630;28;19922;-47
2022/09/02 07:30:06;;;;;;;;;;;16.10;97.90;;;;;;5068230;28;20360;-48
2022/09/02 07:32:31;;;;;;;;;;;16.20;97.90;;;;;;5069642;28;19924;-51
2022/09/02 07:34:57;;;;;;;;;;;16.20;97.80;;;;;;5069430;28;19924;-45
2022/09/02 07:37:23;;;;;;;;;;;16.30;97.90;;;;;;5069572;28;19917;-49
2022/09/02 07:39:48;;;;;;;;;;;16.40;97.60;;;;;;5069607;28;20430;-46
2022/09/02 07:42:15;;;;;;;;;;;16.50;97.40;;;;;;5069837;28;20107;-50
2022/09/02 07:44:41;;;;;;;;;;;16.60;97.00;;;;;;5068043;28;19916;-49
2022/09/02 07:47:07;;;;;;;;;;;16.80;97.20;;;;;;5069098;28;19928;-48
2022/09/02 07:49:32;;;;;;;;;;;16.80;96.60;;;;;;5069220;28;19916;-51
2022/09/02 07:51:58;;;;;;;;;;;16.90;96.50;;;;;;5069294;28;19927;-50
2022/09/02 07:54:25;;;;;;;;;;;17.00;96.10;;;;;;5069439;28;19954;-48
2022/09/02 07:56:51;;;;;;;;;;;17.00;96.00;;;;;;5069241;28;20378;-49
2022/09/02 07:59:17;;;;;;;;;;;17.00;96.30;;;;;;5068056;28;19916;-46
2022/09/02 08:01:43;;;;;;;;;;;17.00;96.50;;;;;;5069175;28;19916;-48
2022/09/02 08:04:09;;;;;;;;;;;17.10;95.70;;;;;;5069636;28;19926;-47
2022/09/02 08:06:36;;;;;;;;;;;17.10;95.70;;;;;;5068595;28;19923;-47
2022/09/02 08:09:10;;;;;;;;;;;17.30;95.60;;;;;;5069041;28;20006;-47
2022/09/02 08:11:38;;;;;;;;;;;17.40;95.60;;;;;;5069228;28;19954;-48
2022/09/02 08:14:04;;;;;;;;;;;17.60;95.20;;;;;;5069222;28;19916;-47
2022/09/02 08:16:30;;;;;;;;;;;17.70;95.20;;;;;;5069206;28;19916;-50
2022/09/02 08:18:57;;;;;;;;;;;17.90;94.50;;;;;;5069083;28;19926;-48
2022/09/02 08:21:24;;;;;;;;;;;18.00;94.70;;;;;;5068959;28;20260;-50
2022/09/02 08:23:50;;;;;;;;;;;18.10;94.30;;;;;;5069138;28;19927;-46
2022/09/02 08:26:17;;;;;;;;;;;18.30;94.70;;;;;;5068960;28;19916;-52
2022/09/02 08:28:42;;;;;;;;;;;18.40;94.30;;;;;;5071056;28;19916;-49
2022/09/02 08:31:08;;;;;;;;;;;18.60;93.90;;;;;;5072565;28;20356;-51
2022/09/02 08:33:33;;;;;;;;;;;18.70;94.50;;;;;;5071589;28;19924;-49
2022/09/02 08:36:07;;;;;;;;;;;18.80;93.70;;;;;;5072330;28;19916;-47
2022/09/02 08:38:33;;;;;;;;;;;18.90;93.80;;;;;;5072554;28;19916;-48
2022/09/02 08:40:59;;;;;;;;;;;19.00;93.40;;;;;;5072617;28;19916;-47
2022/09/02 08:43:38;;;;;;;;;;;19.20;93.00;;;;;;5072898;28;19927;-50
2022/09/02 08:46:07;;;;;;;;;;;19.30;92.30;;;;;;5072304;28;19955;-47
2022/09/02 08:48:38;;;;;;;;;;;19.30;92.20;;;;;;5070631;28;20010;-48
2022/09/02 08:51:17;;;;;;;;;;;19.50;92.00;;;;;;5072343;28;20003;-51
2022/09/02 08:53:46;;;;;;;;;;;19.60;92.00;;;;;;5072503;28;20033;-51
2022/09/02 08:56:14;;;;;;;;;;;19.70;91.90;;;;;;5071660;28;20280;-50
2022/09/02 08:58:41;;;;;;;;;;;19.80;92.50;;;;;;5072155;28;19920;-53
2022/09/02 09:01:12;;;;;;;;;;;20.00;91.90;;;;;;5072090;28;20007;-48
2022/09/02 09:03:56;;;;;;;;;;;20.20;91.80;;;;;;5072352;28;20164;-47
2022/09/02 09:06:26;;;;;;;;;;;20.40;91.60;;;;;;5071666;28;19926;-46
2022/09/02 09:08:56;;;;;;;;;;;20.50;91.10;;;;;;5071944;28;19916;-47
2022/09/02 09:11:22;;;;;;;;;;;20.70;90.70;;;;;;5072065;28;20345;-46
2022/09/02 09:13:53;;;;;;;;;;;20.70;90.40;;;;;;5072052;28;20018;-47
2022/09/02 09:16:22;;;;;;;;;;;20.90;90.10;;;;;;5071644;28;19926;-48
2022/09/02 09:18:51;;;;;;;;;;;21.00;90.00;;;;;;5072014;28;19920;-47
2022/09/02 09:21:17;;;;;;;;;;;21.00;88.60;;;;;;5071826;28;19964;-49
2022/09/02 09:23:43;;;;;;;;;;;21.10;88.90;;;;;;5070914;28;19916;-48
2022/09/02 09:26:14;;;;;;;;;;;21.40;89.90;;;;;;5071445;28;19971;-49
2022/09/02 09:28:42;;;;;;;;;;;21.60;89.40;;;;;;5071716;28;19916;-48
2022/09/02 09:31:13;;;;;;;;;;;21.70;89.50;;;;;;5071235;28;19920;-50
2022/09/02 09:33:40;;;;;;;;;;;21.80;88.10;;;;;;5071414;28;19931;-50
2022/09/02 09:36:06;;;;;;;;;;;22.00;87.70;;;;;;5070981;28;19967;-48
2022/09/02 09:38:33;;;;;;;;;;;22.20;88.40;;;;;;5071487;28;19967;-50
2022/09/02 09:41:09;;;;;;;;;;;22.40;87.70;;;;;;5070874;28;20267;-50
2022/09/02 09:43:35;;;;;;;;;;;22.40;87.00;;;;;;5071022;28;20382;-49
2022/09/02 09:46:18;;;;;;;;;;;22.40;86.50;;;;;;5071157;28;19920;-46
2022/09/02 09:48:50;;;;;;;;;;;22.50;86.10;;;;;;5070889;28;20244;-50
2022/09/02 09:51:16;;;;;;;;;;;22.50;85.90;;;;;;5070726;28;19916;-47
2022/09/02 09:53:42;;;;;;;;;;;22.70;85.40;;;;;;5071043;28;20287;-49
2022/09/02 09:56:14;;;;;;;;;;;22.70;85.60;;;;;;5070330;28;19971;-48
2022/09/02 09:58:40;;;;;;;;;;;22.70;83.80;;;;;;5069525;28;19916;-50
2022/09/02 10:01:24;;;;;;;;;;;22.90;84.70;;;;;;5070972;28;20268;-47
2022/09/02 10:03:52;;;;;;;;;;;23.00;84.40;;;;;;5071165;28;20291;-51
2022/09/02 10:06:17;;;;;;;;;;;23.00;82.10;;;;;;5070551;28;20297;-52
2022/09/02 10:09:09;;;;;;;;;;;23.20;81.90;;;;;;5071021;28;20001;-50
2022/09/02 10:11:36;;;;;;;;;;;23.20;81.50;;;;;;5054369;28;20003;-46
2022/09/02 10:14:05;;;;;;;;;;;23.30;80.30;;;;;;5070838;28;19916;-47
2022/09/02 10:16:50;;;;;;;;;;;23.40;79.70;;;;;;5070131;28;19971;-50
2022/09/02 10:19:38;;;;;;;;;;;23.00;76.80;;;;;;5070527;28;20007;-49
2022/09/02 10:22:23;;;;;;;;;;;23.30;78.10;;;;;;5064365;28;20339;-50
2022/09/02 10:24:51;;;;;;;;;;;23.40;78.00;;;;;;5070595;28;19916;-48
2022/09/02 10:27:37;;;;;;;;;;;23.50;78.10;;;;;;5070245;28;20588;-51
2022/09/02 10:30:03;;;;;;;;;;;23.60;78.40;;;;;;5070017;28;19920;-49
2022/09/02 10:32:29;;;;;;;;;;;23.80;78.60;;;;;;5070233;28;19928;-50
2022/09/02 10:34:57;;;;;;;;;;;23.80;77.30;;;;;;5070158;28;19916;-49
2022/09/02 10:37:24;;;;;;;;;;;24.00;77.90;;;;;;5070226;28;19939;-50
2022/09/02 10:40:01;;;;;;;;;;;24.10;77.80;;;;;;5069752;28;19917;-49
2022/09/02 10:42:38;;;;;;;;;;;23.90;75.50;;;;;;5070252;28;19921;-49
2022/09/02 10:45:16;;;;;;;;;;;24.00;75.20;;;;;;5070189;28;19924;-48
2022/09/02 10:47:44;;;;;;;;;;;24.00;75.50;;;;;;5069592;28;19975;-50
2022/09/02 10:50:25;;;;;;;;;;;24.00;74.80;;;;;;5069424;28;19920;-49
2022/09/02 10:52:57;;;;;;;;;;;24.40;76.50;;;;;;5067807;28;19924;-46
2022/09/02 10:55:23;;;;;;;;;;;24.50;76.00;;;;;;5069860;28;19916;-48
2022/09/02 10:57:53;;;;;;;;;;;24.70;75.20;;;;;;5070046;28;19924;-47
2022/09/02 11:00:20;;;;;;;;;;;24.60;74.60;;;;;;5070255;28;20016;-46
2022/09/02 11:03:11;;;;;;;;;;;24.80;74.70;;;;;;5070098;28;19923;-49
2022/09/02 11:05:40;;;;;;;;;;;24.70;74.20;;;;;;5065930;28;20294;-50
2022/09/02 11:08:09;;;;;;;;;;;24.60;73.10;;;;;;5069614;28;19920;-47
2022/09/02 11:10:55;;;;;;;;;;;24.70;73.70;;;;;;5069672;28;20007;-49
2022/09/02 11:13:28;;;;;;;;;;;24.70;72.60;;;;;;5070142;28;20333;-49
2022/09/02 11:15:54;;;;;;;;;;;24.70;73.20;;;;;;5069504;28;19953;-48
2022/09/02 11:18:29;;;;;;;;;;;24.60;73.40;;;;;;5068404;28;19960;-48
2022/09/02 11:20:54;;;;;;;;;;;24.60;73.80;;;;;;5068140;28;19966;-47
2022/09/02 11:23:23;;;;;;;;;;;24.70;72.50;;;;;;5069723;28;19924;-48
2022/09/02 11:26:07;;;;;;;;;;;25.00;74.10;;;;;;5069721;28;20382;-49
2022/09/02 11:28:39;;;;;;;;;;;24.90;73.10;;;;;;5069671;28;19920;-46
2022/09/02 11:31:09;;;;;;;;;;;25.20;74.10;;;;;;5068536;28;20379;-48
2022/09/02 11:33:40;;;;;;;;;;;25.30;73.20;;;;;;5068310;28;20371;-48
2022/09/02 11:36:06;;;;;;;;;;;25.40;72.60;;;;;;5069097;28;19921;-50
2022/09/02 11:38:41;;;;;;;;;;;25.50;70.70;;;;;;5069451;28;19966;-50
2022/09/02 11:41:10;;;;;;;;;;;25.50;71.10;;;;;;5068985;28;19923;-50
2022/09/02 11:43:35;;;;;;;;;;;25.80;71.40;;;;;;5069850;28;20038;-47
2022/09/02 11:46:03;;;;;;;;;;;25.60;71.10;;;;;;5069403;28;20000;-48
2022/09/02 11:48:49;;;;;;;;;;;26.00;71.40;;;;;;5069066;28;19924;-47
2022/09/02 11:51:33;;;;;;;;;;;26.00;69.80;;;;;;5068688;28;19927;-49
2022/09/02 11:54:01;;;;;;;;;;;26.10;71.00;;;;;;5069718;28;19920;-50
2022/09/02 11:56:29;;;;;;;;;;;26.20;71.00;;;;;;5069230;28;20337;-48
2022/09/02 11:58:54;;;;;;;;;;;26.20;69.40;;;;;;5070037;28;20019;-48
2022/09/02 12:01:28;;;;;;;;;;;26.40;69.80;;;;;;5067795;28;20411;-49
2022/09/02 12:03:53;;;;;;;;;;;26.40;70.10;;;;;;5072331;28;19927;-46
2022/09/02 12:06:20;;;;;;;;;;;26.50;69.00;;;;;;5072575;28;19916;-50
2022/09/02 12:08:47;;;;;;;;;;;26.70;68.30;;;;;;5072988;28;19923;-49
2022/09/02 12:11:31;;;;;;;;;;;26.70;68.60;;;;;;5072964;28;20342;-50
2022/09/02 12:13:58;;;;;;;;;;;26.70;69.40;;;;;;5073037;28;20013;-50
2022/09/02 12:16:27;;;;;;;;;;;26.80;68.40;;;;;;5072775;28;19916;-47
2022/09/02 12:18:59;;;;;;;;;;;27.10;69.10;;;;;;5073036;28;20421;-50
2022/09/02 12:21:26;;;;;;;;;;;27.10;66.70;;;;;;5072481;28;19919;-48
2022/09/02 12:23:52;;;;;;;;;;;27.10;69.40;;;;;;5072963;28;20379;-48
2022/09/02 12:26:21;;;;;;;;;;;27.40;68.70;;;;;;5071440;28;19920;-49
2022/09/02 12:28:47;;;;;;;;;;;27.50;67.90;;;;;;5054602;28;19967;-49
2022/09/02 12:31:39;;;;;;;;;;;27.70;67.10;;;;;;5072839;28;19916;-47
2022/09/02 12:34:20;;;;;;;;;;;27.80;66.60;;;;;;5071754;28;19930;-50
2022/09/02 12:36:55;;;;;;;;;;;27.80;67.60;;;;;;5072254;28;19978;-47
2022/09/02 12:39:26;;;;;;;;;;;28.00;66.20;;;;;;5069990;28;19922;-49
2022/09/02 12:41:57;;;;;;;;;;;28.00;66.70;;;;;;5072609;28;19924;-47
2022/09/02 12:44:22;;;;;;;;;;;28.00;67.00;;;;;;5072343;28;19917;-52
2022/09/02 12:46:58;;;;;;;;;;;28.10;66.80;;;;;;5072240;28;20408;-49
2022/09/02 12:49:26;;;;;;;;;;;28.10;65.80;;;;;;5072706;28;19924;-49
2022/09/02 12:52:01;;;;;;;;;;;28.10;65.30;;;;;;5071749;28;20017;-49
2022/09/02 12:54:32;;;;;;;;;;;28.30;66.40;;;;;;5072220;28;19927;-50
2022/09/02 12:56:58;;;;;;;;;;;28.40;64.50;;;;;;5071993;28;19926;-47
2022/09/02 12:59:28;;;;;;;;;;;28.40;64.70;;;;;;5072052;28;19916;-50
2022/09/02 13:01:57;;;;;;;;;;;28.30;64.10;;;;;;5070821;28;19916;-50
2022/09/02 13:04:32;;;;;;;;;;;28.40;64.90;;;;;;5072342;28;20287;-50
2022/09/02 13:07:01;;;;;;;;;;;28.50;63.80;;;;;;5071712;28;19920;-49
2022/09/02 13:09:26;;;;;;;;;;;28.60;64.90;;;;;;5072190;28;19966;-48
2022/09/02 13:11:52;;;;;;;;;;;28.80;65.10;;;;;;5072053;28;20322;-53
2022/09/02 13:14:17;;;;;;;;;;;28.80;64.20;;;;;;5071258;28;19920;-49
2022/09/02 13:17:01;;;;;;;;;;;28.70;64.20;;;;;;5071681;28;20355;-51
2022/09/02 13:19:38;;;;;;;;;;;28.90;64.00;;;;;;5072042;28;19965;-50
2022/09/02 13:22:22;;;;;;;;;;;29.20;63.50;;;;;;5103764;28;20007;-49
2022/09/02 13:25:00;;;;;;;;;;;29.10;61.50;;;;;;5071802;28;19928;-49
2022/09/02 13:27:44;;;;;;;;;;;29.40;62.70;;;;;;5071695;28;19927;-50
2022/09/02 13:30:13;;;;;;;;;;;29.50;64.10;;;;;;5070533;28;19916;-47
2022/09/02 13:32:39;;;;;;;;;;;29.20;61.70;;;;;;5070367;28;19921;-50
2022/09/02 13:35:15;;;;;;;;;;;29.40;63.40;;;;;;5071843;28;20271;-50
2022/09/02 13:37:42;;;;;;;;;;;29.70;63.00;;;;;;5070005;28;19920;-49
2022/09/02 13:40:16;;;;;;;;;;;29.80;64.10;;;;;;5071291;28;19925;-47
2022/09/02 13:42:49;;;;;;;;;;;29.30;62.60;;;;;;5071501;28;19916;-48
2022/09/02 13:45:17;;;;;;;;;;;29.10;62.40;;;;;;5070908;28;19961;-49
2022/09/02 13:47:47;;;;;;;;;;;29.10;62.90;;;;;;5070764;28;19943;-48
2022/09/02 13:50:14;;;;;;;;;;;29.10;62.20;;;;;;5071283;28;19921;-51
2022/09/02 13:52:41;;;;;;;;;;;28.60;62.30;;;;;;5070970;28;19927;-50
2022/09/02 13:55:09;;;;;;;;;;;28.20;62.50;;;;;;5071032;28;19916;-50
2022/09/02 13:57:35;;;;;;;;;;;28.00;62.80;;;;;;5070763;28;19965;-49
2022/09/02 14:00:01;;;;;;;;;;;27.90;63.40;;;;;;5071242;28;19920;-51
2022/09/02 14:02:28;;;;;;;;;;;27.90;62.90;;;;;;5071292;28;19916;-46
2022/09/02 14:04:58;;;;;;;;;;;28.50;64.30;;;;;;5070867;28;19924;-49
2022/09/02 14:07:29;;;;;;;;;;;28.80;62.40;;;;;;5070607;28;19916;-48
2022/09/02 14:09:57;;;;;;;;;;;28.80;61.60;;;;;;5071009;28;19920;-49
2022/09/02 14:12:23;;;;;;;;;;;29.20;62.60;;;;;;5070908;28;19927;-48
2022/09/02 14:14:49;;;;;;;;;;;29.10;61.30;;;;;;5070859;28;19920;-47
2022/09/02 14:17:20;;;;;;;;;;;29.30;61.90;;;;;;5070389;28;19970;-46
2022/09/02 14:19:45;;;;;;;;;;;29.40;62.20;;;;;;5069486;28;19920;-49
2022/09/02 14:22:19;;;;;;;;;;;29.50;61.10;;;;;;5070326;28;19916;-49
2022/09/02 14:24:45;;;;;;;;;;;29.80;60.70;;;;;;5070739;28;20003;-51